Time;durP1;ratioP1;P1;durP2;ratioP2;P2;SDS_P1;SDS_P2;PMS_P1;PMS_P2;Temp;Humidity;BMP_temperature;BMP_pressure;BME280_temperature;BME280_humidity;BME280_pressure;Samples;Min_cycle;Max_cycle;Signal;HPM_P1;HPM_P2
2024/01/27 00:00:15;;;;;;;8.57;3.17;;;1.60;99.90;;;;;;5093144;28;20652;-73
2024/01/27 00:02:41;;;;;;;10.93;3.60;;;1.70;99.90;;;;;;5093106;28;20559;-74
2024/01/27 00:05:09;;;;;;;12.43;3.93;;;1.80;99.90;;;;;;5093140;28;20221;-74
2024/01/27 00:07:36;;;;;;;8.50;3.80;;;1.70;99.90;;;;;;5093185;28;20282;-74
2024/01/27 00:10:04;;;;;;;11.60;3.60;;;1.60;99.90;;;;;;5092980;28;20556;-73
2024/01/27 00:12:31;;;;;;;9.00;3.43;;;1.60;99.90;;;;;;5092999;28;20586;-74
2024/01/27 00:14:57;;;;;;;10.80;3.73;;;1.60;99.90;;;;;;5093165;28;20226;-73
2024/01/27 00:17:26;;;;;;;9.93;3.37;;;1.50;99.90;;;;;;5093213;28;20195;-73
2024/01/27 00:19:52;;;;;;;13.07;3.97;;;1.50;99.90;;;;;;5092972;28;20196;-73
2024/01/27 00:22:20;;;;;;;10.27;3.93;;;1.50;99.90;;;;;;5092952;28;20242;-73
2024/01/27 00:24:48;;;;;;;8.07;3.47;;;1.40;99.90;;;;;;5100857;28;20223;-73
2024/01/27 00:27:15;;;;;;;11.13;3.80;;;1.40;99.90;;;;;;5092944;28;20196;-73
2024/01/27 00:29:41;;;;;;;12.13;3.70;;;1.40;99.90;;;;;;5093127;28;20196;-74
2024/01/27 00:32:08;;;;;;;10.30;4.30;;;1.30;99.90;;;;;;5092863;28;20578;-75
2024/01/27 00:34:35;;;;;;;9.53;3.47;;;1.40;99.90;;;;;;5093410;28;20196;-73
2024/01/27 00:37:01;;;;;;;11.70;4.50;;;1.40;99.90;;;;;;5096918;28;20200;-73
2024/01/27 00:39:28;;;;;;;9.83;3.53;;;1.30;99.90;;;;;;5097012;28;20250;-73
2024/01/27 00:41:58;;;;;;;8.20;3.80;;;1.30;99.90;;;;;;5096963;28;20277;-73
2024/01/27 00:44:24;;;;;;;9.60;3.60;;;1.40;99.90;;;;;;5096939;28;20207;-73
2024/01/27 00:46:51;;;;;;;11.70;3.60;;;1.20;99.90;;;;;;5096723;28;20230;-73
2024/01/27 00:49:18;;;;;;;8.60;3.33;;;1.20;99.90;;;;;;5096744;28;20208;-73
2024/01/27 00:51:44;;;;;;;9.17;3.43;;;1.20;99.90;;;;;;5096582;28;20200;-74
2024/01/27 00:54:11;;;;;;;8.17;3.00;;;1.20;99.90;;;;;;5096859;28;20204;-74
2024/01/27 00:56:37;;;;;;;8.33;3.60;;;1.20;99.90;;;;;;5096759;28;20196;-75
2024/01/27 00:59:05;;;;;;;13.10;3.70;;;1.10;99.90;;;;;;5096551;28;20231;-74
2024/01/27 01:01:32;;;;;;;9.60;3.60;;;1.10;99.90;;;;;;5096352;28;20594;-74
2024/01/27 01:03:59;;;;;;;11.20;4.20;;;1.20;99.90;;;;;;5096380;28;20250;-74
2024/01/27 01:06:25;;;;;;;10.17;3.57;;;1.00;99.90;;;;;;5096621;28;20200;-73
2024/01/27 01:08:52;;;;;;;8.57;3.63;;;1.10;99.90;;;;;;5096422;28;20249;-74
2024/01/27 01:11:19;;;;;;;8.67;3.87;;;1.00;99.90;;;;;;5096373;28;20207;-74
2024/01/27 01:13:45;;;;;;;12.20;3.90;;;0.90;99.90;;;;;;5096157;28;20598;-74
2024/01/27 01:16:13;;;;;;;8.23;3.43;;;0.80;99.90;;;;;;5096155;28;20192;-74
2024/01/27 01:18:40;;;;;;;8.77;3.53;;;0.70;99.90;;;;;;5096088;28;20224;-74
2024/01/27 01:21:07;;;;;;;8.43;3.27;;;0.80;99.90;;;;;;5096358;28;20257;-73
2024/01/27 01:23:34;;;;;;;12.20;3.80;;;0.70;99.90;;;;;;5096372;28;20200;-74
2024/01/27 01:26:00;;;;;;;7.47;3.70;;;0.70;99.90;;;;;;5096260;28;20321;-74
2024/01/27 01:28:28;;;;;;;15.80;4.40;;;0.70;99.90;;;;;;5095192;28;20239;-74
2024/01/27 01:30:55;;;;;;;10.23;3.73;;;0.70;99.90;;;;;;5094805;28;20197;-74
2024/01/27 01:33:23;;;;;;;8.70;3.60;;;0.70;99.90;;;;;;5094600;28;20193;-74
2024/01/27 01:35:50;;;;;;;12.13;4.20;;;0.60;99.90;;;;;;5094824;28;20291;-74
2024/01/27 01:38:16;;;;;;;13.40;4.23;;;0.50;99.90;;;;;;5094490;28;20752;-74
2024/01/27 01:40:43;;;;;;;10.57;3.80;;;0.60;99.90;;;;;;5094715;28;20250;-74
2024/01/27 01:43:12;;;;;;;9.77;4.10;;;0.60;99.90;;;;;;5094654;28;20200;-74
2024/01/27 01:45:39;;;;;;;9.73;4.03;;;0.70;99.90;;;;;;5094129;28;20591;-74
2024/01/27 01:48:06;;;;;;;11.37;4.13;;;0.70;99.90;;;;;;5094520;28;20618;-74
2024/01/27 01:50:34;;;;;;;12.93;4.40;;;0.70;99.90;;;;;;5094555;28;20193;-74
2024/01/27 01:53:02;;;;;;;11.27;4.57;;;0.70;99.90;;;;;;5094529;28;20200;-74
2024/01/27 01:55:28;;;;;;;9.87;4.27;;;0.70;99.90;;;;;;5094440;28;20254;-73
2024/01/27 01:57:55;;;;;;;10.00;4.77;;;0.50;99.90;;;;;;5094280;28;20192;-73
2024/01/27 02:00:22;;;;;;;12.30;4.30;;;0.50;99.90;;;;;;5094118;28;20208;-73
2024/01/27 02:02:49;;;;;;;7.77;4.27;;;0.40;99.90;;;;;;5094396;28;20199;-73
2024/01/27 02:05:16;;;;;;;20.30;5.33;;;0.40;99.90;;;;;;5094127;28;20632;-73
2024/01/27 02:07:44;;;;;;;14.57;4.57;;;0.50;99.90;;;;;;5094300;28;20223;-73
2024/01/27 02:10:14;;;;;;;15.60;5.13;;;0.50;99.90;;;;;;5094255;28;20205;-73
2024/01/27 02:12:41;;;;;;;15.10;4.80;;;0.50;99.90;;;;;;5094124;28;20251;-73
2024/01/27 02:15:11;;;;;;;8.90;5.17;;;0.50;99.90;;;;;;5093960;28;20200;-73
2024/01/27 02:17:38;;;;;;;13.63;4.73;;;0.50;99.90;;;;;;5094159;28;20196;-73
2024/01/27 02:20:06;;;;;;;10.50;4.93;;;0.50;99.90;;;;;;5093985;28;20231;-73
2024/01/27 02:22:33;;;;;;;11.30;4.83;;;0.50;99.90;;;;;;5093968;28;20232;-73
2024/01/27 02:25:01;;;;;;;12.20;5.70;;;0.30;99.90;;;;;;5093806;28;20657;-73
2024/01/27 02:27:28;;;;;;;16.30;5.47;;;0.30;99.90;;;;;;5057369;28;1032148;-73
2024/01/27 02:29:54;;;;;;;17.47;4.90;;;0.30;99.90;;;;;;5095066;28;20204;-73
2024/01/27 02:32:21;;;;;;;14.63;4.70;;;0.30;99.90;;;;;;5094853;28;20281;-73
2024/01/27 02:34:48;;;;;;;9.83;5.10;;;0.20;99.90;;;;;;5094773;28;20192;-73
2024/01/27 02:37:15;;;;;;;8.87;5.20;;;0.30;99.90;;;;;;5094650;28;20197;-73
2024/01/27 02:39:41;;;;;;;13.77;5.37;;;0.10;99.90;;;;;;5094544;28;20223;-73
2024/01/27 02:42:10;;;;;;;16.73;5.90;;;0.20;99.90;;;;;;5094421;28;20200;-74
2024/01/27 02:44:36;;;;;;;9.40;4.97;;;0.20;99.90;;;;;;5094350;28;20192;-74
2024/01/27 02:47:03;;;;;;;12.30;5.37;;;0.30;99.90;;;;;;5094616;28;20196;-73
2024/01/27 02:49:30;;;;;;;11.60;5.37;;;0.30;99.90;;;;;;5094479;28;20207;-73
2024/01/27 02:51:56;;;;;;;10.87;5.00;;;0.20;99.90;;;;;;5094445;28;20192;-74
2024/01/27 02:54:23;;;;;;;19.77;6.17;;;0.30;99.90;;;;;;5094290;28;20205;-73
2024/01/27 02:56:50;;;;;;;13.17;6.07;;;0.30;99.90;;;;;;5093965;28;20249;-74
2024/01/27 02:59:18;;;;;;;11.23;6.53;;;0.30;99.90;;;;;;5093563;28;20231;-73
2024/01/27 03:01:44;;;;;;;9.43;5.27;;;0.40;99.90;;;;;;5094618;28;20316;-73
2024/01/27 03:04:11;;;;;;;14.43;6.53;;;0.30;99.90;;;;;;5094207;28;20572;-73
2024/01/27 03:06:38;;;;;;;10.77;5.70;;;0.30;99.90;;;;;;5094197;28;20230;-73
2024/01/27 03:09:05;;;;;;;11.73;5.87;;;0.20;99.90;;;;;;5094031;28;20200;-72
2024/01/27 03:11:32;;;;;;;18.13;5.80;;;0.20;99.90;;;;;;5094234;28;20196;-72
2024/01/27 03:13:59;;;;;;;12.73;6.00;;;0.20;99.90;;;;;;5093963;28;20197;-72
2024/01/27 03:16:27;;;;;;;13.33;6.20;;;0.20;99.90;;;;;;5094083;28;20203;-73
2024/01/27 03:18:53;;;;;;;15.87;6.63;;;0.30;99.90;;;;;;5093949;28;20220;-73
2024/01/27 03:21:20;;;;;;;10.20;5.73;;;0.20;99.90;;;;;;5093879;28;20246;-73
2024/01/27 03:23:47;;;;;;;13.10;6.30;;;0.10;99.90;;;;;;5093749;28;20203;-73
2024/01/27 03:26:13;;;;;;;15.70;6.47;;;0.10;99.90;;;;;;5093988;28;20193;-73
2024/01/27 03:28:40;;;;;;;12.37;6.27;;;0.10;99.90;;;;;;5093793;28;20232;-73
2024/01/27 03:31:07;;;;;;;19.60;7.50;;;0.20;99.90;;;;;;5093764;28;20196;-73
2024/01/27 03:33:35;;;;;;;14.10;5.57;;;0.20;99.90;;;;;;5093778;28;20257;-73
2024/01/27 03:36:02;;;;;;;14.77;7.03;;;0.10;99.90;;;;;;5093618;28;20200;-73
2024/01/27 03:38:29;;;;;;;17.53;6.70;;;0.10;99.90;;;;;;5093388;28;20205;-73
2024/01/27 03:40:56;;;;;;;12.63;6.60;;;0.20;99.90;;;;;;5093459;28;20205;-73
2024/01/27 03:43:22;;;;;;;13.60;6.70;;;0.20;99.90;;;;;;5093675;28;20200;-73
2024/01/27 03:45:49;;;;;;;12.17;6.03;;;0.20;99.90;;;;;;5093543;28;20596;-73
2024/01/27 03:48:16;;;;;;;16.13;6.57;;;0.20;99.90;;;;;;5093502;28;20200;-73
2024/01/27 03:50:44;;;;;;;16.53;6.87;;;0.20;99.90;;;;;;5093452;28;20532;-73
2024/01/27 03:53:11;;;;;;;13.40;6.47;;;0.10;99.90;;;;;;5093276;28;20196;-73
2024/01/27 03:55:37;;;;;;;12.47;6.20;;;0.10;99.90;;;;;;5093464;28;20200;-73
2024/01/27 03:58:04;;;;;;;18.73;7.03;;;0.10;99.90;;;;;;5093430;28;20200;-73
2024/01/27 04:00:32;;;;;;;14.77;6.87;;;0.00;99.90;;;;;;5093225;28;20228;-73
2024/01/27 04:02:59;;;;;;;14.47;6.00;;;0.00;99.90;;;;;;5093232;28;20200;-73
2024/01/27 04:05:26;;;;;;;16.07;6.83;;;-0.10;99.90;;;;;;5093129;28;20537;-73
2024/01/27 04:07:54;;;;;;;18.77;7.20;;;-0.10;99.90;;;;;;5093020;28;20246;-73
2024/01/27 04:10:21;;;;;;;19.30;7.50;;;-0.10;99.90;;;;;;5093125;28;20203;-73
2024/01/27 04:12:48;;;;;;;16.70;6.83;;;-0.10;99.90;;;;;;5093162;28;20192;-73
2024/01/27 04:15:15;;;;;;;15.67;6.83;;;0.00;99.90;;;;;;5093125;28;20254;-73
2024/01/27 04:17:42;;;;;;;12.37;6.37;;;-0.10;99.90;;;;;;5092998;28;20606;-73
2024/01/27 04:20:10;;;;;;;15.47;7.13;;;0.00;99.90;;;;;;5092828;28;20718;-73
2024/01/27 04:22:37;;;;;;;19.33;7.20;;;-0.10;99.90;;;;;;5093141;28;20603;-73
2024/01/27 04:25:06;;;;;;;15.57;7.03;;;-0.10;99.90;;;;;;5093009;28;20253;-73
2024/01/27 04:27:37;;;;;;;20.93;7.20;;;-0.10;99.90;;;;;;5092761;28;20626;-73
2024/01/27 04:30:04;;;;;;;12.30;6.67;;;-0.20;99.90;;;;;;5092958;28;20227;-73
2024/01/27 04:32:31;;;;;;;13.17;6.47;;;-0.20;99.90;;;;;;5092807;28;20594;-72
2024/01/27 04:34:57;;;;;;;16.20;6.90;;;-0.20;99.90;;;;;;5093021;28;20223;-73
2024/01/27 04:37:24;;;;;;;15.40;6.63;;;-0.30;99.90;;;;;;5092938;28;20226;-73
2024/01/27 04:39:51;;;;;;;17.50;7.20;;;-0.40;99.90;;;;;;5092808;28;20220;-73
2024/01/27 04:42:19;;;;;;;12.80;6.43;;;-0.40;99.90;;;;;;5092869;28;20196;-73
2024/01/27 04:44:45;;;;;;;14.33;6.30;;;-0.40;99.90;;;;;;5092772;28;20247;-73
2024/01/27 04:47:12;;;;;;;16.93;6.90;;;-0.30;99.90;;;;;;5092737;28;20200;-73
2024/01/27 04:49:39;;;;;;;20.20;6.43;;;-0.40;99.90;;;;;;5092923;28;20207;-74
2024/01/27 04:52:06;;;;;;;16.83;6.90;;;-0.40;99.90;;;;;;5092841;28;20197;-73
2024/01/27 04:54:32;;;;;;;14.93;6.77;;;-0.40;99.90;;;;;;5092791;28;20200;-73
2024/01/27 04:56:59;;;;;;;18.50;7.40;;;-0.30;99.90;;;;;;5092667;28;20196;-73
2024/01/27 04:59:27;;;;;;;15.93;6.80;;;-0.20;99.90;;;;;;5092480;28;20273;-73
2024/01/27 05:01:53;;;;;;;18.33;6.93;;;-0.40;99.90;;;;;;5092506;28;20537;-73
2024/01/27 05:04:20;;;;;;;13.90;6.60;;;-0.40;99.90;;;;;;5092671;28;20196;-73
2024/01/27 05:06:47;;;;;;;13.17;6.73;;;-0.50;99.90;;;;;;5092570;28;20204;-73
2024/01/27 05:09:14;;;;;;;15.10;7.23;;;-0.60;99.90;;;;;;5092633;28;20201;-73
2024/01/27 05:11:42;;;;;;;16.10;7.33;;;-0.50;99.90;;;;;;5092470;28;20647;-73
2024/01/27 05:14:09;;;;;;;14.17;6.87;;;-0.60;99.90;;;;;;5092355;28;20743;-73
2024/01/27 05:16:37;;;;;;;19.60;7.40;;;-0.70;99.90;;;;;;5092687;28;20626;-73
2024/01/27 05:19:04;;;;;;;15.77;6.97;;;-0.80;99.90;;;;;;5092575;28;20235;-73
2024/01/27 05:21:30;;;;;;;15.17;7.40;;;-0.80;99.90;;;;;;5094425;28;20196;-73
2024/01/27 05:23:57;;;;;;;15.20;6.97;;;-0.80;99.90;;;;;;5096148;28;20590;-73
2024/01/27 05:26:23;;;;;;;16.53;7.60;;;-0.90;99.90;;;;;;5096218;28;20214;-73
2024/01/27 05:28:50;;;;;;;17.47;7.47;;;-1.00;99.90;;;;;;5095971;28;20228;-73
2024/01/27 05:31:17;;;;;;;15.10;7.10;;;-0.90;99.90;;;;;;5096113;28;20196;-73
2024/01/27 05:33:45;;;;;;;18.63;7.23;;;-0.80;99.90;;;;;;5096165;28;20212;-73
2024/01/27 05:36:12;;;;;;;17.47;6.73;;;-0.80;99.90;;;;;;5096021;28;20196;-73
2024/01/27 05:38:38;;;;;;;20.60;6.90;;;-0.80;99.90;;;;;;5095905;28;20246;-73
2024/01/27 05:41:05;;;;;;;14.13;7.17;;;-0.80;99.90;;;;;;5095986;28;20228;-73
2024/01/27 05:43:32;;;;;;;21.20;7.17;;;-0.90;99.90;;;;;;5095623;28;20200;-73
2024/01/27 05:45:59;;;;;;;12.77;7.07;;;-0.80;99.90;;;;;;5095702;28;20196;-73
2024/01/27 05:48:25;;;;;;;14.03;6.97;;;-0.70;99.90;;;;;;5095901;28;20200;-73
2024/01/27 05:51:01;;;;;;;19.00;6.67;;;-0.70;99.90;;;;;;5095686;28;20539;-74
2024/01/27 05:53:28;;;;;;;16.07;6.97;;;-0.70;99.90;;;;;;5095659;28;20241;-73
2024/01/27 05:55:56;;;;;;;17.37;6.70;;;-0.70;99.90;;;;;;5095516;28;20205;-73
2024/01/27 05:58:23;;;;;;;18.37;7.63;;;-0.60;99.90;;;;;;5095712;28;20287;-73
2024/01/27 06:00:50;;;;;;;17.53;8.03;;;-0.60;99.90;;;;;;5095591;28;20231;-73
2024/01/27 06:03:17;;;;;;;15.40;8.00;;;-0.70;99.90;;;;;;5095555;28;20226;-73
2024/01/27 06:05:44;;;;;;;12.37;7.33;;;-0.80;99.90;;;;;;5104105;28;20227;-73
2024/01/27 06:08:12;;;;;;;13.97;6.63;;;-0.80;99.90;;;;;;5095294;28;20204;-73
2024/01/27 06:10:39;;;;;;;16.10;7.63;;;-0.60;99.90;;;;;;5095089;28;20237;-73
2024/01/27 06:13:06;;;;;;;14.53;7.60;;;-0.70;99.90;;;;;;5095330;28;20713;-73
2024/01/27 06:15:33;;;;;;;18.27;7.17;;;-0.70;99.90;;;;;;5095016;28;20598;-72
2024/01/27 06:17:59;;;;;;;14.10;6.93;;;-0.70;99.90;;;;;;5095048;28;20196;-73
2024/01/27 06:20:26;;;;;;;24.67;7.20;;;-0.80;99.90;;;;;;5095063;28;20228;-73
2024/01/27 06:22:53;;;;;;;20.60;7.67;;;-0.90;99.90;;;;;;5094910;28;20652;-73
2024/01/27 06:25:21;;;;;;;15.60;7.03;;;-1.00;99.90;;;;;;5095109;28;20196;-74
2024/01/27 06:27:48;;;;;;;19.27;7.37;;;-1.10;99.90;;;;;;5094985;28;20224;-74
2024/01/27 06:30:15;;;;;;;17.03;8.33;;;-1.10;99.90;;;;;;5094941;28;20210;-74
2024/01/27 06:32:42;;;;;;;15.90;8.33;;;-1.20;99.90;;;;;;5093638;28;20196;-74
2024/01/27 06:35:09;;;;;;;18.60;7.67;;;-1.20;99.90;;;;;;5094734;28;20199;-74
2024/01/27 06:37:36;;;;;;;15.33;7.90;;;-1.30;99.90;;;;;;5094558;28;20283;-74
2024/01/27 06:40:03;;;;;;;15.00;7.53;;;-1.30;99.90;;;;;;5094780;28;20223;-73
2024/01/27 06:42:31;;;;;;;18.40;9.07;;;-1.40;99.90;;;;;;5094673;28;20594;-73
2024/01/27 06:44:58;;;;;;;14.63;7.70;;;-1.40;99.90;;;;;;5094639;28;20283;-73
2024/01/27 06:47:24;;;;;;;20.30;8.13;;;-1.50;99.90;;;;;;5094501;28;20233;-73
2024/01/27 06:49:51;;;;;;;17.20;8.20;;;-1.60;99.90;;;;;;5094361;28;20253;-73
2024/01/27 06:52:17;;;;;;;22.47;10.17;;;-1.70;99.90;;;;;;5094573;28;20246;-73
2024/01/27 06:54:44;;;;;;;21.60;8.53;;;-1.60;99.90;;;;;;5094248;28;20594;-73
2024/01/27 06:57:20;;;;;;;23.60;12.03;;;-1.30;99.90;;;;;;5094390;28;20287;-73
2024/01/27 06:59:51;;;;;;;22.17;10.90;;;-1.20;99.90;;;;;;5094197;28;20645;-73
2024/01/27 07:02:19;;;;;;;20.73;11.20;;;-0.90;99.90;;;;;;5094292;28;20555;-72
2024/01/27 07:04:46;;;;;;;20.30;10.57;;;-0.80;99.90;;;;;;5094435;28;20238;-73
2024/01/27 07:07:12;;;;;;;18.93;10.80;;;-0.70;99.90;;;;;;5094387;28;20197;-73
2024/01/27 07:09:39;;;;;;;29.50;9.80;;;-0.60;99.90;;;;;;5094166;28;20204;-73
2024/01/27 07:12:06;;;;;;;21.73;9.57;;;-0.60;99.90;;;;;;5094180;28;20193;-73
2024/01/27 07:14:33;;;;;;;22.00;9.73;;;-0.70;99.90;;;;;;5094271;28;20196;-73
2024/01/27 07:17:01;;;;;;;19.57;9.80;;;-0.60;99.90;;;;;;5093826;28;20204;-73
2024/01/27 07:19:28;;;;;;;23.50;10.83;;;-0.60;99.90;;;;;;5093788;28;20652;-73
2024/01/27 07:21:54;;;;;;;18.93;9.13;;;-0.50;99.90;;;;;;5094155;28;20211;-73
2024/01/27 07:24:21;;;;;;;17.20;9.23;;;-0.60;99.90;;;;;;5093848;28;20241;-73
2024/01/27 07:26:48;;;;;;;19.73;9.17;;;-0.60;99.90;;;;;;5093862;28;20325;-73
2024/01/27 07:29:14;;;;;;;20.50;8.87;;;-0.60;99.90;;;;;;5093549;28;20224;-73
2024/01/27 07:31:41;;;;;;;17.97;9.20;;;-0.70;99.90;;;;;;5093640;28;20201;-73
2024/01/27 07:34:09;;;;;;;23.70;9.47;;;-0.70;99.90;;;;;;5093784;28;20192;-73
2024/01/27 07:36:36;;;;;;;24.33;8.97;;;-0.70;99.90;;;;;;5093518;28;20709;-72
2024/01/27 07:39:02;;;;;;;17.47;9.50;;;-0.70;99.90;;;;;;5093690;28;20590;-73
2024/01/27 07:41:31;;;;;;;14.27;8.33;;;-0.60;99.90;;;;;;5093593;28;20228;-73
2024/01/27 07:43:58;;;;;;;28.53;9.27;;;-0.60;99.90;;;;;;5093034;28;20250;-73
2024/01/27 07:46:25;;;;;;;28.17;9.50;;;-0.50;99.90;;;;;;5093270;28;20576;-72
2024/01/27 07:48:51;;;;;;;17.63;9.90;;;-0.50;99.90;;;;;;5093351;28;20674;-73
2024/01/27 07:51:19;;;;;;;20.50;9.23;;;-0.50;99.90;;;;;;5093500;28;20242;-73
2024/01/27 07:53:46;;;;;;;17.33;10.00;;;-0.50;99.90;;;;;;5093349;28;20200;-74
2024/01/27 07:56:13;;;;;;;17.77;10.10;;;-0.40;99.90;;;;;;5093289;28;20230;-73
2024/01/27 07:58:39;;;;;;;21.00;9.37;;;-0.40;99.90;;;;;;5093014;28;20572;-74
2024/01/27 08:01:06;;;;;;;19.00;9.50;;;-0.30;99.90;;;;;;5093101;28;20228;-73
2024/01/27 08:03:33;;;;;;;18.03;9.17;;;-0.30;99.90;;;;;;5093377;28;20221;-73
2024/01/27 08:05:59;;;;;;;15.40;8.73;;;-0.10;99.90;;;;;;5093403;28;20192;-73
2024/01/27 08:08:27;;;;;;;17.60;8.90;;;0.00;99.90;;;;;;5093110;28;20205;-73
2024/01/27 08:10:54;;;;;;;18.27;9.13;;;0.10;99.90;;;;;;5093022;28;20197;-73
2024/01/27 08:13:20;;;;;;;18.13;8.97;;;0.20;99.90;;;;;;5092902;28;20208;-74
2024/01/27 08:15:47;;;;;;;16.23;8.87;;;0.30;99.90;;;;;;5093198;28;20196;-73
2024/01/27 08:18:14;;;;;;;19.33;9.43;;;0.30;99.90;;;;;;5093031;28;20275;-73
2024/01/27 08:20:41;;;;;;;19.97;9.37;;;0.40;99.90;;;;;;5092860;28;20220;-73
2024/01/27 08:23:08;;;;;;;17.77;9.40;;;0.40;99.90;;;;;;5092947;28;20192;-73
2024/01/27 08:25:36;;;;;;;21.47;9.17;;;0.40;99.90;;;;;;5093001;28;20204;-73
2024/01/27 08:28:03;;;;;;;18.73;8.80;;;0.50;99.90;;;;;;5092780;28;20239;-73
2024/01/27 08:30:30;;;;;;;17.43;8.93;;;0.60;99.90;;;;;;5093105;28;20261;-73
2024/01/27 08:32:56;;;;;;;23.17;9.57;;;0.70;99.90;;;;;;5093115;28;20548;-73
2024/01/27 08:35:23;;;;;;;19.17;8.97;;;0.80;99.90;;;;;;5092936;28;20258;-74
2024/01/27 08:37:50;;;;;;;15.87;8.40;;;0.90;99.90;;;;;;5092898;28;20631;-73
2024/01/27 08:40:17;;;;;;;14.60;9.30;;;1.00;99.90;;;;;;5092533;28;20691;-73
2024/01/27 08:42:45;;;;;;;16.17;8.23;;;1.00;99.90;;;;;;5093209;28;20621;-73
2024/01/27 08:45:12;;;;;;;14.83;9.00;;;1.10;99.90;;;;;;5092759;28;20230;-73
2024/01/27 08:47:38;;;;;;;16.97;8.33;;;1.10;99.90;;;;;;5092907;28;20203;-72
2024/01/27 08:50:06;;;;;;;15.93;9.10;;;1.20;99.90;;;;;;5092759;28;20654;-73
2024/01/27 08:52:33;;;;;;;20.43;8.60;;;1.40;99.90;;;;;;5092613;28;20201;-73
2024/01/27 08:55:00;;;;;;;19.43;8.70;;;1.50;99.90;;;;;;5092483;28;20200;-73
2024/01/27 08:57:26;;;;;;;15.63;8.43;;;1.70;99.90;;;;;;5096281;28;20246;-73
2024/01/27 08:59:54;;;;;;;19.93;8.20;;;1.90;99.90;;;;;;5096520;28;20226;-74
2024/01/27 09:02:21;;;;;;;16.33;7.90;;;2.10;99.90;;;;;;5096556;28;20192;-74
2024/01/27 09:04:47;;;;;;;14.93;7.23;;;2.40;99.90;;;;;;5096416;28;20251;-74
2024/01/27 09:07:14;;;;;;;12.70;6.43;;;2.60;99.90;;;;;;5096495;28;20198;-74
2024/01/27 09:09:41;;;;;;;11.50;6.17;;;2.80;99.90;;;;;;5096312;28;20250;-74
2024/01/27 09:12:08;;;;;;;13.33;5.87;;;3.00;99.90;;;;;;5096428;28;20235;-74
2024/01/27 09:14:34;;;;;;;9.93;5.90;;;3.00;99.90;;;;;;5096138;28;20719;-74
2024/01/27 09:17:03;;;;;;;10.77;5.47;;;3.20;99.90;;;;;;5096316;28;20265;-74
2024/01/27 09:19:29;;;;;;;10.93;5.30;;;3.40;99.90;;;;;;5096253;28;20206;-74
2024/01/27 09:21:56;;;;;;;8.57;5.20;;;3.50;99.90;;;;;;5095649;28;20574;-74
2024/01/27 09:24:22;;;;;;;9.60;6.23;;;3.70;99.90;;;;;;5096326;28;20277;-74
2024/01/27 09:26:49;;;;;;;11.00;6.23;;;3.80;99.90;;;;;;5096169;28;20200;-74
2024/01/27 09:29:17;;;;;;;12.20;4.97;;;3.90;99.90;;;;;;5095927;28;20230;-74
2024/01/27 09:31:44;;;;;;;8.97;4.97;;;4.00;99.90;;;;;;5096222;28;20555;-74
2024/01/27 09:34:12;;;;;;;9.00;5.10;;;4.20;99.90;;;;;;5101645;28;20601;-74
2024/01/27 09:36:38;;;;;;;12.37;4.53;;;4.40;99.90;;;;;;5095851;28;20238;-75
2024/01/27 09:39:05;;;;;;;11.10;4.33;;;4.60;99.90;;;;;;5096684;28;20246;-74
2024/01/27 09:41:32;;;;;;;11.47;4.80;;;4.80;99.90;;;;;;5095889;28;20255;-74
2024/01/27 09:44:02;;;;;;;9.20;4.90;;;4.90;99.90;;;;;;5095829;28;20291;-74
2024/01/27 09:46:29;;;;;;;9.57;4.97;;;4.90;99.90;;;;;;5095723;28;20569;-73
2024/01/27 09:48:56;;;;;;;10.33;5.20;;;4.90;99.90;;;;;;5095618;28;20613;-75
2024/01/27 09:51:25;;;;;;;12.30;5.30;;;5.00;99.90;;;;;;5095545;28;20204;-74
2024/01/27 09:53:52;;;;;;;7.20;4.53;;;4.80;99.90;;;;;;5095656;28;20274;-74
2024/01/27 09:56:20;;;;;;;9.87;4.10;;;4.80;99.90;;;;;;5095617;28;20230;-73
2024/01/27 09:58:47;;;;;;;9.07;4.60;;;4.50;99.90;;;;;;5095471;28;20358;-74
2024/01/27 10:01:16;;;;;;;10.70;5.03;;;4.70;99.90;;;;;;5095272;28;20220;-74
2024/01/27 10:03:43;;;;;;;9.33;4.77;;;5.00;99.90;;;;;;5095112;28;20196;-74
2024/01/27 10:06:11;;;;;;;10.40;4.47;;;5.00;99.90;;;;;;5095360;28;20196;-74
2024/01/27 10:08:39;;;;;;;10.20;4.13;;;4.90;99.90;;;;;;5095282;28;20201;-75
2024/01/27 10:11:08;;;;;;;9.73;4.23;;;5.10;99.90;;;;;;5095426;28;20250;-75
2024/01/27 10:13:35;;;;;;;10.47;4.00;;;5.30;99.90;;;;;;5095146;28;20738;-74
2024/01/27 10:16:02;;;;;;;11.77;4.33;;;5.40;99.90;;;;;;5095028;28;20200;-75
2024/01/27 10:18:29;;;;;;;11.23;4.30;;;5.00;99.90;;;;;;5094805;28;20234;-75
2024/01/27 10:20:56;;;;;;;12.30;4.40;;;5.20;99.90;;;;;;5094900;28;20216;-75
2024/01/27 10:23:23;;;;;;;12.93;3.97;;;5.60;99.90;;;;;;5095079;28;20200;-74
2024/01/27 10:25:52;;;;;;;8.33;3.87;;;5.90;99.90;;;;;;5094906;28;20196;-73
2024/01/27 10:28:19;;;;;;;13.87;4.10;;;6.20;99.90;;;;;;5094683;28;20289;-73
2024/01/27 10:30:48;;;;;;;9.43;4.03;;;6.60;99.90;;;;;;5094675;28;20261;-74
2024/01/27 10:33:15;;;;;;;8.97;3.77;;;6.90;99.90;;;;;;5094728;28;20250;-74
2024/01/27 10:35:42;;;;;;;10.47;4.03;;;6.90;99.90;;;;;;5094867;28;20254;-75
2024/01/27 10:38:08;;;;;;;15.23;3.60;;;7.30;99.90;;;;;;5094858;28;20208;-74
2024/01/27 10:40:36;;;;;;;11.33;3.97;;;7.90;99.90;;;;;;5094461;28;20235;-74
2024/01/27 10:43:06;;;;;;;12.30;3.23;;;8.50;99.90;;;;;;5094581;28;20257;-74
2024/01/27 10:45:37;;;;;;;10.00;3.63;;;9.20;99.90;;;;;;5094361;28;20234;-74
2024/01/27 10:48:05;;;;;;;9.20;3.40;;;9.50;99.90;;;;;;5094560;28;20193;-74
2024/01/27 10:50:36;;;;;;;8.83;3.57;;;9.10;99.90;;;;;;5094466;28;20243;-74
2024/01/27 10:53:05;;;;;;;9.37;3.20;;;9.60;99.90;;;;;;5094485;28;20207;-75
2024/01/27 10:55:33;;;;;;;10.53;3.53;;;9.20;99.90;;;;;;5094376;28;20322;-74
2024/01/27 10:58:02;;;;;;;9.30;3.60;;;9.70;99.90;;;;;;5094212;28;20576;-74
2024/01/27 11:00:31;;;;;;;9.97;3.53;;;9.80;99.90;;;;;;5094066;28;20584;-74
2024/01/27 11:02:59;;;;;;;9.13;3.47;;;9.20;99.90;;;;;;5094258;28;20226;-74
2024/01/27 11:05:28;;;;;;;8.97;3.50;;;9.80;99.90;;;;;;5094186;28;20200;-74
2024/01/27 11:07:55;;;;;;;8.40;3.53;;;10.00;99.90;;;;;;5094147;28;20196;-75
2024/01/27 11:10:23;;;;;;;8.27;3.60;;;9.90;99.90;;;;;;5093961;28;20192;-74
2024/01/27 11:12:50;;;;;;;10.47;4.17;;;9.80;99.90;;;;;;5094223;28;20200;-74
2024/01/27 11:15:17;;;;;;;7.73;3.80;;;10.60;99.90;;;;;;5094187;28;20196;-74
2024/01/27 11:17:46;;;;;;;10.20;4.33;;;10.60;99.90;;;;;;5093897;28;20199;-75
2024/01/27 11:20:16;;;;;;;11.30;4.90;;;11.00;99.90;;;;;;5093611;28;20197;-74
2024/01/27 11:22:43;;;;;;;9.20;3.83;;;10.80;99.90;;;;;;5093701;28;20319;-74
2024/01/27 11:25:16;;;;;;;9.13;4.07;;;12.10;99.90;;;;;;5093672;28;20208;-74
2024/01/27 11:27:44;;;;;;;6.40;3.80;;;13.10;97.90;;;;;;5093595;28;20339;-74
2024/01/27 11:30:27;;;;;;;12.30;4.00;;;12.60;96.70;;;;;;5093992;28;20262;-74
2024/01/27 11:32:55;;;;;;;12.40;3.87;;;12.60;96.30;;;;;;5093789;28;20218;-75
2024/01/27 11:35:22;;;;;;;7.13;3.30;;;13.60;95.90;;;;;;5093799;28;20204;-75
2024/01/27 11:37:49;;;;;;;9.05;3.97;;;14.30;91.50;;;;;;5093790;28;20200;-74
2024/01/27 11:40:16;;;;;;;8.05;3.80;;;14.20;90.30;;;;;;5093645;28;20201;-74
2024/01/27 11:42:42;;;;;;;9.95;3.63;;;13.60;87.80;;;;;;5093504;28;20224;-74
2024/01/27 11:45:10;;;;;;;11.27;3.50;;;14.50;87.30;;;;;;5093469;28;20198;-74
2024/01/27 11:47:36;;;;;;;11.00;4.97;;;15.00;81.50;;;;;;5093367;28;20207;-74
2024/01/27 11:50:05;;;;;;;11.00;4.18;;;15.60;77.60;;;;;;5093277;28;20258;-74
2024/01/27 11:52:32;;;;;;;7.63;2.78;;;15.90;76.60;;;;;;5093487;28;20199;-75
2024/01/27 11:55:00;;;;;;;10.32;3.08;;;15.80;70.90;;;;;;5093426;28;20253;-74
2024/01/27 11:57:27;;;;;;;7.45;2.80;;;14.70;71.50;;;;;;5093363;28;20602;-75
2024/01/27 11:59:55;;;;;;;6.55;2.88;;;15.50;69.60;;;;;;5093509;28;20277;-76
2024/01/27 12:02:21;;;;;;;9.52;2.70;;;16.00;65.90;;;;;;5093102;28;20224;-75
2024/01/27 12:04:49;;;;;;;12.90;3.40;;;16.90;64.70;;;;;;5093455;28;20258;-75
2024/01/27 12:07:18;;;;;;;8.90;3.00;;;15.90;64.60;;;;;;5093256;28;20291;-75
2024/01/27 12:09:45;;;;;;;7.28;3.20;;;15.10;61.60;;;;;;5093299;28;20196;-75
2024/01/27 12:12:14;;;;;;;6.57;3.00;;;16.40;62.80;;;;;;5093087;28;20196;-75
2024/01/27 12:14:41;;;;;;;7.28;3.30;;;15.80;61.40;;;;;;5093123;28;20556;-75
2024/01/27 12:17:10;;;;;;;8.43;3.10;;;16.40;60.80;;;;;;5092904;28;20638;-75
2024/01/27 12:19:37;;;;;;;8.13;3.25;;;17.80;60.80;;;;;;5093300;28;20204;-77
2024/01/27 12:22:04;;;;;;;8.18;3.65;;;17.60;59.00;;;;;;5092925;28;20227;-75
2024/01/27 12:24:32;;;;;;;9.23;3.35;;;17.70;56.00;;;;;;5092969;28;20245;-75
2024/01/27 12:27:00;;;;;;;8.48;3.10;;;17.70;54.50;;;;;;5092988;28;20200;-75
2024/01/27 12:29:28;;;;;;;9.02;3.45;;;17.50;54.10;;;;;;5092978;28;20666;-75
2024/01/27 12:31:55;;;;;;;9.85;3.40;;;18.70;53.70;;;;;;5097216;28;20204;-75
2024/01/27 12:34:22;;;;;;;6.85;3.30;;;18.10;52.60;;;;;;5097246;28;20439;-75
2024/01/27 12:36:48;;;;;;;8.80;3.17;;;18.40;51.80;;;;;;5097094;28;20207;-75
2024/01/27 12:39:15;;;;;;;6.32;3.00;;;19.30;51.70;;;;;;5096991;28;20201;-75
2024/01/27 12:41:44;;;;;;;7.90;3.42;;;16.30;50.50;;;;;;5096931;28;20304;-75
2024/01/27 12:44:10;;;;;;;7.20;3.40;;;17.20;53.00;;;;;;5096799;28;20556;-75